Time;durP1;ratioP1;P1;durP2;ratioP2;P2;SDS_P1;SDS_P2;PMS_P1;PMS_P2;Temp;Humidity;BMP_temperature;BMP_pressure;BME280_temperature;BME280_humidity;BME280_pressure;Samples;Min_cycle;Max_cycle;Signal;HPM_P1;HPM_P2
2021/06/25 00:00:09;;;;;;;28.77;24.13;;;16.20;99.90;;;;;;4993796;28;20140;-81
2021/06/25 00:02:36;;;;;;;38.00;25.70;;;16.20;99.90;;;;;;4958245;28;20038;-81
2021/06/25 00:05:06;;;;;;;31.60;25.60;;;16.30;99.90;;;;;;4996864;28;20094;-79
2021/06/25 00:07:33;;;;;;;36.03;24.50;;;16.30;99.90;;;;;;5009496;28;20153;-81
2021/06/25 00:10:00;;;;;;;28.33;24.30;;;16.20;99.90;;;;;;4992666;28;20054;-80
2021/06/25 00:12:27;;;;;;;26.20;22.60;;;16.20;99.90;;;;;;4989931;28;20497;-80
2021/06/25 00:14:54;;;;;;;36.53;23.15;;;16.10;99.90;;;;;;4959854;28;20050;-80
2021/06/25 00:17:21;;;;;;;27.92;23.40;;;16.00;99.90;;;;;;4977785;28;20050;-79
2021/06/25 00:19:48;;;;;;;28.80;23.52;;;16.00;99.90;;;;;;4986802;28;20056;-79
2021/06/25 00:22:15;;;;;;;31.25;22.73;;;16.00;99.90;;;;;;4977823;28;20053;-81
2021/06/25 00:24:42;;;;;;;26.48;22.85;;;16.10;99.90;;;;;;4973389;28;20265;-79
2021/06/25 00:27:09;;;;;;;30.40;23.92;;;16.10;99.90;;;;;;4968787;28;20046;-79
2021/06/25 00:29:36;;;;;;;33.05;26.90;;;16.10;99.90;;;;;;4972624;28;20065;-80
2021/06/25 00:32:03;;;;;;;28.25;24.00;;;15.90;99.90;;;;;;4976079;28;20056;-80
2021/06/25 00:34:30;;;;;;;31.00;23.38;;;15.90;99.90;;;;;;4992020;28;20058;-80
2021/06/25 00:36:57;;;;;;;27.88;23.65;;;15.90;99.90;;;;;;4974627;28;20041;-81
2021/06/25 00:39:24;;;;;;;29.35;23.95;;;15.90;99.90;;;;;;4991907;28;20144;-80
2021/06/25 00:41:51;;;;;;;28.02;23.83;;;15.90;99.90;;;;;;4989689;28;20046;-79
2021/06/25 00:44:20;;;;;;;25.77;22.20;;;15.90;99.90;;;;;;4975833;28;20042;-79
2021/06/25 00:46:49;;;;;;;27.27;21.65;;;15.80;99.90;;;;;;4971012;28;20097;-80
2021/06/25 00:49:16;;;;;;;26.33;22.88;;;15.70;99.90;;;;;;4973355;28;20057;-81
2021/06/25 00:51:44;;;;;;;25.55;21.55;;;15.80;99.90;;;;;;4982761;28;20085;-80
2021/06/25 00:54:13;;;;;;;24.52;20.80;;;15.90;99.90;;;;;;4960103;28;20054;-81
2021/06/25 00:56:41;;;;;;;27.45;22.20;;;15.80;99.90;;;;;;4994561;28;20076;-80
2021/06/25 00:59:08;;;;;;;25.48;21.00;;;15.80;99.90;;;;;;4976135;28;20050;-79
2021/06/25 01:01:36;;;;;;;24.75;22.05;;;15.90;99.90;;;;;;4999468;28;20033;-81
2021/06/25 01:04:04;;;;;;;24.05;21.45;;;15.80;99.90;;;;;;5015168;28;20505;-81
2021/06/25 01:06:31;;;;;;;30.40;23.20;;;15.70;99.90;;;;;;5011217;28;20046;-81
2021/06/25 01:08:59;;;;;;;27.38;23.45;;;15.80;99.90;;;;;;4979342;28;20046;-81
2021/06/25 01:11:29;;;;;;;35.45;25.65;;;15.60;99.90;;;;;;4995494;28;20046;-81
2021/06/25 01:14:00;;;;;;;33.35;27.00;;;15.60;99.90;;;;;;4980063;28;20041;-81
2021/06/25 01:16:27;;;;;;;36.63;26.35;;;15.60;99.90;;;;;;4963751;28;20054;-80
2021/06/25 01:18:54;;;;;;;35.20;27.10;;;15.60;99.90;;;;;;4985154;28;20053;-81
2021/06/25 01:21:21;;;;;;;39.05;27.83;;;15.50;99.90;;;;;;5014485;28;20053;-80
2021/06/25 01:23:48;;;;;;;39.78;27.40;;;15.50;99.90;;;;;;4972521;28;20086;-79
2021/06/25 01:26:15;;;;;;;32.90;25.63;;;15.60;99.90;;;;;;4978736;28;20122;-80
2021/06/25 01:28:42;;;;;;;38.58;26.65;;;15.60;99.90;;;;;;4983313;28;20034;-78
2021/06/25 01:31:09;;;;;;;47.53;30.23;;;15.70;99.90;;;;;;4983310;28;20490;-77
2021/06/25 01:33:37;;;;;;;40.45;29.30;;;15.70;99.90;;;;;;4991579;28;20048;-80
2021/06/25 01:36:04;;;;;;;44.72;29.33;;;15.70;99.90;;;;;;4996604;28;20470;-78
2021/06/25 01:38:31;;;;;;;40.60;28.05;;;15.60;99.90;;;;;;4991860;28;20128;-79
2021/06/25 01:40:59;;;;;;;36.97;28.42;;;15.60;99.90;;;;;;5011325;28;20069;-80
2021/06/25 01:43:27;;;;;;;39.55;29.10;;;15.50;99.90;;;;;;5026031;28;20156;-82
2021/06/25 01:45:55;;;;;;;40.70;27.92;;;15.40;99.90;;;;;;5010363;28;20045;-80
2021/06/25 01:48:22;;;;;;;34.90;26.30;;;15.10;99.90;;;;;;4982780;28;20072;-82
2021/06/25 01:50:49;;;;;;;35.13;26.42;;;15.10;99.90;;;;;;5001538;28;20649;-79
2021/06/25 01:53:18;;;;;;;37.25;25.95;;;15.00;99.90;;;;;;4994943;28;20080;-81
2021/06/25 01:55:50;;;;;;;35.85;25.70;;;15.10;99.90;;;;;;5009093;28;20038;-81
2021/06/25 01:58:23;;;;;;;27.63;24.02;;;15.00;99.90;;;;;;4992695;28;20046;-78
2021/06/25 02:01:07;;;;;;;28.95;24.00;;;15.10;99.90;;;;;;5011923;28;20137;-81
2021/06/25 02:03:34;;;;;;;35.00;24.27;;;15.20;99.90;;;;;;4994946;28;20045;-81
2021/06/25 02:06:01;;;;;;;38.83;25.58;;;15.30;99.90;;;;;;4980297;28;20042;-79
2021/06/25 02:08:28;;;;;;;34.67;24.48;;;15.30;99.90;;;;;;4985829;28;20061;-80
2021/06/25 02:10:55;;;;;;;35.35;26.83;;;15.30;99.90;;;;;;4982394;28;20068;-78
2021/06/25 02:13:22;;;;;;;38.40;25.70;;;15.50;99.90;;;;;;4993020;28;20092;-80
2021/06/25 02:15:49;;;;;;;38.10;27.38;;;15.40;99.90;;;;;;4978713;28;20315;-80
2021/06/25 02:18:16;;;;;;;38.35;27.55;;;15.40;99.90;;;;;;4967088;28;20046;-80
2021/06/25 02:20:42;;;;;;;33.80;25.90;;;15.40;99.90;;;;;;4982858;28;20118;-80
2021/06/25 02:23:09;;;;;;;32.92;25.55;;;15.40;99.90;;;;;;4960576;28;20044;-82
2021/06/25 02:25:36;;;;;;;31.95;25.33;;;15.30;99.90;;;;;;4966790;28;20046;-78
2021/06/25 02:28:03;;;;;;;31.27;25.80;;;15.30;99.90;;;;;;4997139;28;20045;-79
2021/06/25 02:30:30;;;;;;;35.17;26.55;;;15.20;99.90;;;;;;5017543;28;20541;-79
2021/06/25 02:32:58;;;;;;;33.13;26.60;;;15.30;99.90;;;;;;4980732;28;20050;-80
2021/06/25 02:35:24;;;;;;;34.47;25.90;;;15.40;99.90;;;;;;4979935;28;20095;-79
2021/06/25 02:37:55;;;;;;;34.05;25.55;;;15.20;99.90;;;;;;4995483;28;20447;-80
2021/06/25 02:40:23;;;;;;;35.63;26.45;;;15.20;99.90;;;;;;4996782;28;20100;-80
2021/06/25 02:42:50;;;;;;;34.83;26.80;;;15.30;99.90;;;;;;5009868;28;20046;-81
2021/06/25 02:45:17;;;;;;;35.55;26.55;;;15.40;99.90;;;;;;4975703;28;20406;-79
2021/06/25 02:47:45;;;;;;;39.70;30.25;;;15.50;99.90;;;;;;4976186;28;20041;-79
2021/06/25 02:50:13;;;;;;;30.92;24.70;;;15.40;99.90;;;;;;4986928;28;20168;-78
2021/06/25 02:52:41;;;;;;;37.53;25.55;;;15.40;99.90;;;;;;4976443;28;20081;-80
2021/06/25 02:55:10;;;;;;;41.38;28.23;;;15.40;99.90;;;;;;4975476;28;20046;-80
2021/06/25 02:57:37;;;;;;;41.58;28.85;;;15.30;99.90;;;;;;4969674;28;20042;-80
2021/06/25 03:00:06;;;;;;;40.30;27.52;;;15.20;99.90;;;;;;4985188;28;20053;-80
2021/06/25 03:02:33;;;;;;;81.97;45.20;;;15.20;99.90;;;;;;4996568;28;20049;-80
2021/06/25 03:05:00;;;;;;;82.25;46.03;;;15.20;99.90;;;;;;4975637;28;20523;-81
2021/06/25 03:07:27;;;;;;;79.10;44.90;;;15.20;99.90;;;;;;4998423;28;20053;-80
2021/06/25 03:09:54;;;;;;;58.95;35.10;;;15.30;99.90;;;;;;4996467;28;20671;-80
2021/06/25 03:12:21;;;;;;;40.67;28.25;;;15.40;99.90;;;;;;4990111;28;20038;-81
2021/06/25 03:14:48;;;;;;;37.83;27.38;;;15.50;99.90;;;;;;4992364;28;20122;-80
2021/06/25 03:17:17;;;;;;;41.78;30.58;;;15.50;99.90;;;;;;4972438;28;20528;-79
2021/06/25 03:19:44;;;;;;;53.05;34.17;;;15.50;99.90;;;;;;4985692;28;20698;-81
2021/06/25 03:22:10;;;;;;;48.10;33.08;;;15.50;99.90;;;;;;4994967;28;20046;-80
2021/06/25 03:24:37;;;;;;;59.95;36.15;;;15.70;99.90;;;;;;4981034;28;20050;-79
2021/06/25 03:27:05;;;;;;;75.55;44.83;;;15.80;99.90;;;;;;4974610;28;20050;-80
2021/06/25 03:29:32;;;;;;;76.97;48.03;;;15.70;99.90;;;;;;5001271;28;20109;-78
2021/06/25 03:31:59;;;;;;;97.22;54.53;;;15.70;99.90;;;;;;5029501;28;20093;-80
2021/06/25 03:34:26;;;;;;;100.90;55.15;;;15.60;99.90;;;;;;4982794;28;20182;-80
2021/06/25 03:36:53;;;;;;;119.78;58.55;;;15.60;99.90;;;;;;4994967;28;20073;-80
2021/06/25 03:39:20;;;;;;;96.43;54.85;;;15.50;99.90;;;;;;4990337;28;20117;-80
2021/06/25 03:41:47;;;;;;;109.40;57.78;;;15.50;99.90;;;;;;4980561;28;20057;-81
2021/06/25 03:44:14;;;;;;;111.20;57.33;;;15.50;99.90;;;;;;4967304;28;20664;-79
2021/06/25 03:46:44;;;;;;;102.70;57.30;;;15.50;99.90;;;;;;4982097;28;20233;-78
2021/06/25 03:49:11;;;;;;;101.43;57.60;;;15.60;99.90;;;;;;4975647;28;20044;-79
2021/06/25 03:51:38;;;;;;;102.40;58.17;;;15.70;99.90;;;;;;5013302;28;20048;-81
2021/06/25 03:54:05;;;;;;;105.43;56.85;;;15.70;99.90;;;;;;5031970;28;20058;-80
2021/06/25 03:56:32;;;;;;;107.70;57.03;;;15.70;99.90;;;;;;4995097;28;20045;-81
2021/06/25 03:58:59;;;;;;;96.88;55.17;;;15.70;99.90;;;;;;4983524;28;20069;-79
2021/06/25 04:01:26;;;;;;;94.20;55.47;;;15.70;99.90;;;;;;4984055;28;20054;-80
2021/06/25 04:03:53;;;;;;;90.45;54.90;;;15.70;99.90;;;;;;4980356;28;20505;-81
2021/06/25 04:06:20;;;;;;;79.72;50.95;;;15.80;99.90;;;;;;4985617;28;20077;-79
2021/06/25 04:08:49;;;;;;;89.95;53.40;;;15.80;99.90;;;;;;5023244;28;20042;-80
2021/06/25 04:11:19;;;;;;;87.38;53.30;;;15.80;99.90;;;;;;4990059;28;20072;-79
2021/06/25 04:13:47;;;;;;;85.90;54.00;;;15.70;99.90;;;;;;5020768;28;20049;-78
2021/06/25 04:16:14;;;;;;;92.22;55.40;;;15.70;99.90;;;;;;4975029;28;20108;-80
2021/06/25 04:18:42;;;;;;;97.30;58.40;;;15.60;99.90;;;;;;5026657;28;20042;-78
2021/06/25 04:21:09;;;;;;;101.45;60.38;;;15.60;99.90;;;;;;5023088;28;20105;-79
2021/06/25 04:23:36;;;;;;;100.68;59.92;;;15.50;99.90;;;;;;4994653;28;20046;-80
2021/06/25 04:26:03;;;;;;;102.97;60.83;;;15.40;99.90;;;;;;4995150;28;20042;-81
2021/06/25 04:28:31;;;;;;;94.78;60.05;;;15.40;99.90;;;;;;5015276;28;20062;-80
2021/06/25 04:30:58;;;;;;;96.70;59.58;;;15.40;99.90;;;;;;4973256;28;20049;-80
2021/06/25 04:33:25;;;;;;;89.10;58.20;;;15.40;99.90;;;;;;4999968;28;20050;-79
2021/06/25 04:35:55;;;;;;;87.75;56.80;;;15.40;99.90;;;;;;4983277;28;20081;-79
2021/06/25 04:38:22;;;;;;;84.63;53.85;;;15.50;99.90;;;;;;5000351;28;20060;-80
2021/06/25 04:40:50;;;;;;;88.43;57.17;;;15.40;99.90;;;;;;4996789;28;20038;-81
2021/06/25 04:43:18;;;;;;;76.70;53.20;;;15.40;99.90;;;;;;4982950;28;20057;-80
2021/06/25 04:45:45;;;;;;;75.50;52.53;;;15.30;99.90;;;;;;4968978;28;20045;-80
2021/06/25 04:48:14;;;;;;;76.15;51.08;;;15.30;99.90;;;;;;5001425;28;20073;-79
2021/06/25 04:50:42;;;;;;;74.43;52.35;;;15.40;99.90;;;;;;4984569;28;20050;-81
2021/06/25 04:53:11;;;;;;;75.88;51.63;;;15.40;99.90;;;;;;5031652;28;20050;-80
2021/06/25 04:55:47;;;;;;;73.18;49.63;;;15.40;99.90;;;;;;4974188;28;20410;-79
2021/06/25 04:58:16;;;;;;;87.63;53.50;;;15.30;99.90;;;;;;4979441;28;20061;-79
2021/06/25 05:00:44;;;;;;;89.32;54.60;;;15.30;99.90;;;;;;4956487;28;20045;-80
2021/06/25 05:03:11;;;;;;;89.38;56.33;;;15.30;99.90;;;;;;4981145;28;20041;-79
2021/06/25 05:05:41;;;;;;;79.10;53.70;;;15.30;99.90;;;;;;4979772;28;20042;-80
2021/06/25 05:08:09;;;;;;;87.30;51.53;;;15.40;99.90;;;;;;4997471;28;20073;-79
2021/06/25 05:10:36;;;;;;;73.85;49.08;;;15.50;99.90;;;;;;4980710;28;20040;-80
2021/06/25 05:13:03;;;;;;;80.80;50.17;;;15.50;99.90;;;;;;4982871;28;20136;-80
2021/06/25 05:15:31;;;;;;;75.28;51.10;;;15.50;99.90;;;;;;4970894;28;20069;-80
2021/06/25 05:18:09;;;;;;;79.85;51.90;;;15.50;99.90;;;;;;4980863;28;20065;-81
2021/06/25 05:20:56;;;;;;;79.55;49.95;;;15.60;99.90;;;;;;4992579;28;20060;-79
2021/06/25 05:23:22;;;;;;;78.07;51.05;;;15.60;99.90;;;;;;4980655;28;20049;-79
2021/06/25 05:25:49;;;;;;;75.10;51.97;;;15.70;99.90;;;;;;4984474;28;20904;-80
2021/06/25 05:28:16;;;;;;;77.07;51.33;;;15.70;99.90;;;;;;4996702;28;20049;-80
2021/06/25 05:30:43;;;;;;;83.47;55.47;;;15.60;99.90;;;;;;5012607;28;20038;-79
2021/06/25 05:33:10;;;;;;;74.50;51.90;;;15.70;99.90;;;;;;5016041;28;20140;-80
2021/06/25 05:35:38;;;;;;;77.28;50.65;;;15.70;99.90;;;;;;5018772;28;20084;-81
2021/06/25 05:38:09;;;;;;;80.80;50.58;;;15.60;99.90;;;;;;4984381;28;20053;-80
2021/06/25 05:40:36;;;;;;;74.20;49.65;;;15.60;99.90;;;;;;4996568;28;20502;-80
2021/06/25 05:43:04;;;;;;;77.82;52.30;;;15.60;99.90;;;;;;5013552;28;20105;-80
2021/06/25 05:45:32;;;;;;;72.55;49.33;;;15.80;99.90;;;;;;5010632;28;20041;-81
2021/06/25 05:47:59;;;;;;;75.05;48.75;;;15.90;99.90;;;;;;4994031;28;20425;-79
2021/06/25 05:50:27;;;;;;;64.03;45.92;;;15.90;99.90;;;;;;4994685;28;20042;-80
2021/06/25 05:52:54;;;;;;;68.10;46.47;;;15.90;99.90;;;;;;4994620;28;20152;-81
2021/06/25 05:55:22;;;;;;;62.88;46.40;;;16.00;99.90;;;;;;4992938;28;20529;-80
2021/06/25 05:57:50;;;;;;;62.70;45.33;;;16.10;99.90;;;;;;4987841;28;20081;-79
2021/06/25 06:00:18;;;;;;;54.92;42.25;;;16.20;99.90;;;;;;5011597;28;20046;-80
2021/06/25 06:02:46;;;;;;;59.97;43.13;;;16.20;99.90;;;;;;5013418;28;20042;-79
2021/06/25 06:05:13;;;;;;;57.72;42.92;;;16.20;99.90;;;;;;5000437;28;20046;-81
2021/06/25 06:07:44;;;;;;;55.13;41.75;;;16.20;99.90;;;;;;5017693;28;20136;-79
2021/06/25 06:10:16;;;;;;;64.53;44.65;;;16.10;99.90;;;;;;4984417;28;20456;-80
2021/06/25 06:12:44;;;;;;;60.05;43.63;;;16.10;99.90;;;;;;4988873;28;20039;-79
2021/06/25 06:15:13;;;;;;;61.95;45.30;;;16.10;99.90;;;;;;5001420;28;20049;-80
2021/06/25 06:17:41;;;;;;;65.45;47.20;;;16.00;99.90;;;;;;5024406;28;20046;-78
2021/06/25 06:20:13;;;;;;;69.43;45.47;;;16.00;99.90;;;;;;5008814;28;20052;-80
2021/06/25 06:34:12;;;;;;;64.18;45.55;;;16.10;99.90;;;;;;4956691;28;20073;-77
2021/06/25 06:36:44;;;;;;;60.67;42.60;;;16.20;99.90;;;;;;4943017;28;20055;-80
2021/06/25 06:39:13;;;;;;;53.72;39.95;;;16.30;99.90;;;;;;4982830;28;20080;-80
2021/06/25 06:41:41;;;;;;;56.42;39.20;;;16.30;99.90;;;;;;5025233;28;20632;-79
2021/06/25 06:44:08;;;;;;;56.70;40.42;;;16.30;99.90;;;;;;5017231;28;20058;-79
2021/06/25 06:46:36;;;;;;;46.47;37.25;;;16.30;99.90;;;;;;4993008;28;20042;-79
2021/06/25 06:49:04;;;;;;;54.67;40.05;;;16.40;99.90;;;;;;4992289;28;20042;-80
2021/06/25 06:51:31;;;;;;;51.97;40.60;;;16.40;99.90;;;;;;5002342;28;20106;-80
2021/06/25 06:54:00;;;;;;;56.80;42.97;;;16.30;99.90;;;;;;4983656;28;20624;-80
2021/06/25 06:56:27;;;;;;;56.13;42.15;;;16.30;99.90;;;;;;5000528;28;20053;-80
2021/06/25 06:58:55;;;;;;;57.35;41.17;;;16.10;99.90;;;;;;4994787;28;20054;-81
2021/06/25 07:01:23;;;;;;;57.72;43.90;;;16.20;99.90;;;;;;4997904;28;20080;-81
2021/06/25 07:04:10;;;;;;;58.85;44.28;;;16.40;99.90;;;;;;5017415;28;20033;-80
2021/06/25 07:06:37;;;;;;;57.38;43.28;;;16.50;99.90;;;;;;5017182;28;20055;-80
2021/06/25 07:09:04;;;;;;;55.35;43.63;;;16.40;99.90;;;;;;4994225;28;20080;-79
2021/06/25 07:11:31;;;;;;;56.90;42.75;;;16.50;99.90;;;;;;5000504;28;20498;-81
2021/06/25 07:13:58;;;;;;;59.60;44.53;;;16.70;99.90;;;;;;4983393;28;20057;-80
2021/06/25 07:16:25;;;;;;;54.90;44.63;;;16.90;99.90;;;;;;4998141;28;20056;-80
2021/06/25 07:18:52;;;;;;;57.58;44.38;;;17.00;99.90;;;;;;4983614;28;20045;-79
2021/06/25 07:21:19;;;;;;;55.83;44.78;;;17.20;99.90;;;;;;4998980;28;20049;-80
2021/06/25 07:23:46;;;;;;;56.60;46.40;;;17.50;99.90;;;;;;5014437;28;20815;-83
2021/06/25 07:26:14;;;;;;;58.13;45.20;;;17.90;99.90;;;;;;5013715;28;20045;-82
2021/06/25 07:28:41;;;;;;;57.75;48.80;;;18.20;99.90;;;;;;5008580;28;20037;-78
2021/06/25 07:31:08;;;;;;;55.15;47.58;;;18.00;99.90;;;;;;5017935;28;20052;-80
2021/06/25 07:33:35;;;;;;;61.40;46.20;;;17.60;99.90;;;;;;4994017;28;20046;-80
2021/06/25 07:36:02;;;;;;;56.90;46.00;;;17.20;99.90;;;;;;5008382;28;20053;-79
2021/06/25 07:38:29;;;;;;;56.05;44.88;;;16.90;99.90;;;;;;5023016;28;20084;-81
2021/06/25 07:40:57;;;;;;;57.33;45.58;;;16.90;99.90;;;;;;4997860;28;20050;-81
2021/06/25 07:43:24;;;;;;;53.58;43.53;;;17.00;99.90;;;;;;5013039;28;20037;-80
2021/06/25 07:45:51;;;;;;;46.72;39.60;;;17.40;99.90;;;;;;4995567;28;20037;-80
2021/06/25 07:48:18;;;;;;;45.13;39.38;;;17.70;99.90;;;;;;4979736;28;20567;-79
2021/06/25 07:50:45;;;;;;;48.08;39.20;;;18.20;99.90;;;;;;4994650;28;20504;-81
2021/06/25 07:53:11;;;;;;;42.30;37.72;;;18.40;99.90;;;;;;4996378;28;20049;-79
2021/06/25 07:55:43;;;;;;;41.65;36.47;;;18.50;99.90;;;;;;4993812;28;20444;-79
2021/06/25 07:58:15;;;;;;;44.88;36.40;;;18.80;99.90;;;;;;5015237;28;20045;-78
2021/06/25 08:00:43;;;;;;;40.25;36.13;;;18.90;99.90;;;;;;4980092;28;20141;-79
2021/06/25 08:03:10;;;;;;;39.03;34.90;;;19.20;99.90;;;;;;5012247;28;20050;-81
2021/06/25 08:05:37;;;;;;;38.28;34.22;;;19.40;99.90;;;;;;4994078;28;20583;-79
2021/06/25 08:08:05;;;;;;;38.83;34.47;;;19.40;99.90;;;;;;5007656;28;20697;-80
2021/06/25 08:10:34;;;;;;;40.55;36.22;;;19.20;99.90;;;;;;5015126;28;20037;-81
2021/06/25 08:13:03;;;;;;;41.17;36.45;;;19.10;99.90;;;;;;4998835;28;20049;-80
2021/06/25 08:15:30;;;;;;;44.92;38.80;;;19.20;99.90;;;;;;5014213;28;20041;-81
2021/06/25 08:17:57;;;;;;;42.60;37.70;;;19.10;99.90;;;;;;5014244;28;20217;-79
2021/06/25 08:20:24;;;;;;;45.08;38.42;;;19.30;99.90;;;;;;4996937;28;20045;-80
2021/06/25 08:22:51;;;;;;;47.13;40.83;;;19.40;99.90;;;;;;5012325;28;20521;-79
2021/06/25 08:25:18;;;;;;;43.90;38.67;;;19.40;99.90;;;;;;4994847;28;20065;-79
2021/06/25 08:27:45;;;;;;;47.45;38.45;;;19.60;99.90;;;;;;5013014;28;20570;-80
2021/06/25 08:30:13;;;;;;;43.97;39.28;;;19.60;99.90;;;;;;5000280;28;20055;-79
2021/06/25 08:32:40;;;;;;;48.38;41.05;;;19.40;99.90;;;;;;4997279;28;20120;-81
2021/06/25 08:35:07;;;;;;;46.33;39.28;;;19.60;99.90;;;;;;4994654;28;20046;-80
2021/06/25 08:37:34;;;;;;;46.25;39.90;;;19.80;99.90;;;;;;4976312;28;20050;-80
2021/06/25 08:40:04;;;;;;;46.22;41.17;;;20.00;99.90;;;;;;4974339;28;20042;-82
2021/06/25 08:42:32;;;;;;;47.22;41.45;;;20.10;99.90;;;;;;4993397;28;20053;-81
2021/06/25 08:45:00;;;;;;;43.85;39.28;;;20.20;99.90;;;;;;4994400;28;20033;-80
2021/06/25 08:47:27;;;;;;;45.80;39.33;;;20.30;99.90;;;;;;5010452;28;20084;-83
2021/06/25 08:50:02;;;;;;;;;;;20.60;99.90;;;;;;5012063;28;20041;-80
2021/06/25 08:52:32;;;;;;;46.55;38.05;;;20.60;99.90;;;;;;5010018;28;20008;-81
2021/06/25 08:54:59;;;;;;;52.35;40.13;;;20.20;99.90;;;;;;4962985;28;20603;-81
2021/06/25 08:57:26;;;;;;;49.03;40.28;;;19.70;99.90;;;;;;5014621;28;20080;-81
2021/06/25 08:59:54;;;;;;;53.28;42.20;;;19.20;99.90;;;;;;5006209;28;20076;-80
2021/06/25 09:02:21;;;;;;;54.58;43.65;;;19.10;99.90;;;;;;4999171;28;20436;-79
2021/06/25 09:04:48;;;;;;;49.40;41.65;;;19.30;99.90;;;;;;4993356;28;20165;-81
2021/06/25 09:07:15;;;;;;;54.30;41.53;;;19.70;99.90;;;;;;4959394;28;20088;-79
2021/06/25 09:09:48;;;;;;;46.30;40.42;;;20.40;99.90;;;;;;4977466;28;20084;-80
2021/06/25 09:12:23;;;;;;;50.88;43.13;;;20.50;99.90;;;;;;4966807;28;20064;-81
2021/06/25 09:15:06;;;;;;;56.67;40.03;;;20.60;99.90;;;;;;4994150;28;20060;-80
2021/06/25 09:17:34;;;;;;;46.35;41.30;;;20.50;99.90;;;;;;5015208;28;20053;-80
2021/06/25 09:20:05;;;;;;;48.40;41.20;;;20.40;99.90;;;;;;4992204;28;20511;-85
2021/06/25 09:22:48;;;;;;;47.33;39.83;;;20.50;99.90;;;;;;5012483;28;20076;-81
2021/06/25 09:25:15;;;;;;;45.58;38.97;;;20.70;99.90;;;;;;5031626;28;20394;-80
2021/06/25 09:27:43;;;;;;;45.80;40.65;;;20.80;99.90;;;;;;5002144;28;20045;-81
2021/06/25 09:30:11;;;;;;;50.08;40.15;;;20.90;99.90;;;;;;5013705;28;20145;-80
2021/06/25 09:32:48;;;;;;;49.72;41.55;;;21.00;99.90;;;;;;4949572;28;1059241;-80
2021/06/25 09:35:23;;;;;;;48.47;40.78;;;20.80;99.90;;;;;;4998087;28;20050;-80
2021/06/25 09:37:53;;;;;;;47.80;41.60;;;20.90;99.90;;;;;;4998109;28;20069;-82
2021/06/25 09:40:21;;;;;;;47.95;39.65;;;21.30;99.90;;;;;;5017200;28;20049;-79
2021/06/25 09:43:14;;;;;;;44.03;38.60;;;22.00;99.90;;;;;;4985170;28;20056;-82
2021/06/25 09:45:49;;;;;;;46.17;38.50;;;22.10;99.90;;;;;;5017347;28;20041;-80
2021/06/25 09:48:18;;;;;;;45.38;39.58;;;21.90;99.90;;;;;;5013847;28;20088;-78
2021/06/25 09:50:46;;;;;;;44.75;39.92;;;21.30;99.90;;;;;;5011745;28;20053;-80
2021/06/25 09:53:13;;;;;;;45.60;40.70;;;21.10;99.90;;;;;;5021283;28;20049;-80
2021/06/25 09:55:56;;;;;;;49.08;41.15;;;21.00;99.90;;;;;;4994928;28;20136;-80
2021/06/25 10:01:24;;;;;;;45.63;40.70;;;21.80;99.90;;;;;;5002285;28;20117;-81
2021/06/25 10:03:59;;;;;;;48.28;42.35;;;21.90;99.90;;;;;;4997376;28;20054;-83
2021/06/25 10:06:29;;;;;;;45.70;40.88;;;22.20;99.90;;;;;;4976078;28;20794;-80
2021/06/25 10:08:56;;;;;;;49.90;42.13;;;22.20;99.90;;;;;;4995486;28;20054;-80
2021/06/25 10:11:29;;;;;;;49.55;43.13;;;21.50;99.90;;;;;;5002904;28;20050;-81
2021/06/25 10:13:58;;;;;;;51.08;45.67;;;21.40;99.90;;;;;;5011814;28;20057;-80
2021/06/25 10:16:26;;;;;;;47.25;42.42;;;21.50;99.90;;;;;;4995970;28;20045;-79
2021/06/25 10:18:55;;;;;;;45.28;40.72;;;21.80;99.90;;;;;;5010658;28;20050;-79
2021/06/25 10:21:25;;;;;;;46.78;41.70;;;22.30;99.90;;;;;;5017871;28;20321;-80
2021/06/25 10:23:59;;;;;;;46.35;41.92;;;22.40;99.90;;;;;;5009439;28;20045;-81
2021/06/25 10:26:26;;;;;;;46.85;42.03;;;22.30;99.90;;;;;;4989737;28;20052;-80
2021/06/25 10:28:54;;;;;;;49.53;44.33;;;22.30;99.90;;;;;;4980212;28;20113;-80
2021/06/25 10:31:23;;;;;;;47.40;42.25;;;22.20;99.90;;;;;;4983334;28;20085;-80
2021/06/25 10:33:55;;;;;;;45.97;41.30;;;21.90;99.90;;;;;;4999549;28;20064;-80
2021/06/25 10:36:27;;;;;;;50.20;44.80;;;21.90;99.90;;;;;;5013342;28;20053;-81
2021/06/25 10:38:54;;;;;;;54.03;48.42;;;22.10;99.90;;;;;;4985157;28;20682;-80
2021/06/25 10:41:22;;;;;;;49.05;44.38;;;22.20;99.90;;;;;;5001380;28;20724;-79
2021/06/25 10:43:55;;;;;;;47.28;42.55;;;22.40;99.90;;;;;;5017891;28;20053;-80
2021/06/25 10:46:34;;;;;;;47.63;42.58;;;22.70;99.90;;;;;;4989298;28;20049;-79
2021/06/25 10:49:14;;;;;;;49.10;44.17;;;22.80;99.90;;;;;;4984089;28;20045;-80
2021/06/25 10:51:43;;;;;;;48.50;43.35;;;22.80;99.90;;;;;;5000240;28;20050;-81
2021/06/25 10:54:20;;;;;;;49.33;44.00;;;22.50;99.90;;;;;;4981297;28;20033;-80
2021/06/25 10:56:50;;;;;;;45.50;40.75;;;22.10;99.90;;;;;;4976648;28;20073;-79
2021/06/25 10:59:19;;;;;;;50.85;43.63;;;22.00;99.90;;;;;;4974316;28;20046;-79
2021/06/25 11:02:08;;;;;;;47.97;42.92;;;21.90;99.90;;;;;;4976565;28;20054;-81
2021/06/25 11:04:44;;;;;;;45.83;41.20;;;21.70;99.90;;;;;;4983044;28;20149;-82
2021/06/25 11:07:13;;;;;;;45.40;40.95;;;21.90;99.90;;;;;;4996823;28;20209;-81
2021/06/25 11:10:00;;;;;;;44.60;40.10;;;22.10;99.90;;;;;;5015092;28;20089;-83
2021/06/25 11:12:33;;;;;;;43.60;39.22;;;22.20;99.90;;;;;;5004285;28;20053;-83
2021/06/25 11:15:08;;;;;;;42.28;37.97;;;22.30;99.90;;;;;;4982930;28;20054;-81
2021/06/25 11:17:53;;;;;;;42.63;38.10;;;22.30;99.90;;;;;;4966448;28;20060;-79
2021/06/25 11:20:27;;;;;;;43.60;39.10;;;22.60;99.90;;;;;;5010886;28;20064;-82
2021/06/25 11:23:04;;;;;;;46.75;41.72;;;22.70;99.90;;;;;;5022722;28;20495;-81
2021/06/25 11:25:35;;;;;;;44.17;39.53;;;23.00;99.90;;;;;;5035441;28;20515;-82
2021/06/25 11:28:24;;;;;;;43.42;38.85;;;23.10;99.90;;;;;;5016512;28;20049;-82
2021/06/25 11:30:52;;;;;;;42.60;38.28;;;23.20;99.90;;;;;;5010690;28;20079;-80
2021/06/25 11:33:25;;;;;;;44.65;40.03;;;23.00;99.90;;;;;;5015622;28;20053;-81
2021/06/25 11:35:53;;;;;;;40.22;36.33;;;22.70;99.90;;;;;;5018716;28;20057;-80
2021/06/25 11:38:58;;;;;;;38.70;34.95;;;22.90;99.90;;;;;;5016901;28;20045;-81
2021/06/25 11:41:29;;;;;;;36.95;33.42;;;23.20;99.90;;;;;;5005815;28;20140;-82
2021/06/25 11:44:24;;;;;;;37.42;33.80;;;23.60;99.90;;;;;;4995682;28;20414;-84
2021/06/25 11:46:56;;;;;;;37.42;33.80;;;23.50;99.90;;;;;;4977833;28;20046;-79
2021/06/25 11:49:40;;;;;;;37.58;33.92;;;23.60;99.90;;;;;;5005024;28;20050;-81
2021/06/25 11:52:19;;;;;;;33.90;30.80;;;23.60;99.90;;;;;;4959449;28;20526;-83
2021/06/25 11:54:55;;;;;;;30.80;27.90;;;23.50;99.90;;;;;;4976800;28;20054;-81
2021/06/25 11:57:24;;;;;;;28.73;26.23;;;23.50;99.90;;;;;;4996962;28;20104;-82
2021/06/25 12:00:16;;;;;;;31.23;28.50;;;23.70;99.90;;;;;;4986230;28;20045;-84
2021/06/25 12:02:50;;;;;;;33.15;30.10;;;23.70;99.90;;;;;;4997659;28;20566;-81
2021/06/25 12:05:19;;;;;;;31.88;28.60;;;23.50;99.90;;;;;;5018465;28;20056;-80
2021/06/25 12:07:59;;;;;;;31.30;28.55;;;23.40;99.90;;;;;;5000990;28;20045;-83
2021/06/25 12:10:38;;;;;;;32.45;29.45;;;23.50;99.90;;;;;;5012032;28;20072;-81
2021/06/25 12:13:05;;;;;;;30.52;27.70;;;23.50;99.90;;;;;;5021606;28;20477;-81
2021/06/25 12:15:43;;;;;;;33.67;30.80;;;23.50;99.90;;;;;;5000004;28;20049;-79
2021/06/25 12:18:18;;;;;;;30.73;27.92;;;23.50;99.90;;;;;;4999080;28;20118;-80
2021/06/25 12:20:46;;;;;;;29.75;27.10;;;23.80;99.90;;;;;;5002078;28;20080;-81
2021/06/25 12:23:13;;;;;;;32.00;29.05;;;23.90;99.90;;;;;;4997031;28;20049;-81
2021/06/25 12:25:47;;;;;;;31.38;28.42;;;23.70;99.90;;;;;;4993576;28;20041;-83
2021/06/25 12:28:21;;;;;;;32.50;29.38;;;23.60;99.90;;;;;;4961285;28;20657;-81
2021/06/25 12:30:55;;;;;;;31.50;28.63;;;23.20;99.90;;;;;;4973923;28;20069;-80
2021/06/25 12:33:24;;;;;;;30.90;27.80;;;23.00;99.90;;;;;;4996764;28;20422;-82
2021/06/25 12:35:53;;;;;;;29.08;26.50;;;23.40;99.90;;;;;;4969762;28;20122;-80
2021/06/25 12:38:25;;;;;;;28.70;26.00;;;23.50;99.90;;;;;;5013895;28;20053;-81
2021/06/25 12:40:55;;;;;;;29.20;26.13;;;23.50;99.90;;;;;;4985625;28;20059;-80
2021/06/25 12:43:28;;;;;;;27.35;25.02;;;23.60;99.90;;;;;;5006568;28;20046;-80
2021/06/25 12:45:58;;;;;;;26.90;24.23;;;23.50;99.90;;;;;;4994922;28;20643;-79
2021/06/25 12:48:36;;;;;;;26.25;23.70;;;23.90;99.90;;;;;;4990784;28;20056;-79
2021/06/25 12:51:29;;;;;;;26.60;24.27;;;24.10;99.90;;;;;;5018831;28;20451;-82